Lorenzo, Texas
Current Conditions -  °F | °C
As of 4:53 PM on Thursday 27 Nov 2014 (Local Time) from KLBB Reporting Station
Few Clouds Few Clouds  
Wind Chill: 57°   Ceiling: Unl
Heat Index: 57°   Visibility: 10mi
Dew Point: 30°   Wind: 18mph
Humidity: 36%   Direction: 200°SSW
Pressure: 30.29"   Gusts: NA
Location:  33.67°N, 101.54°W
Report Text: KLBB 272253Z 20016KT 10SM FEW250 14/M01 A3029 RMK AO2 SLP251 T01391011
Loading
Personal Weather Stations






























Interactive Weather Map New forecast layout! Learn more

10-Day Weather Forecast

Advertisements
Track Severe Weather on mobile